Canoe Narrows, Canada
Current Conditions -  °F | °C
As of 10:00 PM on Thursday 23 Oct 2014 (Local Time) from CYVT Reporting Station
Scattered Clouds Scattered Clouds  
Wind Chill: 38°   Ceiling: Unl
Heat Index: 43°   Visibility: 12mi
Dew Point: 43°   Wind: 8mph
Humidity: 100%   Direction: 180°S
Pressure: 29.38"   Gusts: NA
Location:  55.17°N, 108.15°W
Report Text: CYVT 240400Z 18007KT 12SM SCT015 06/06 A2938 RMK SC3 LAST STFD OBS/NEXT 241200UTC SLP967
Loading
Personal Weather Stations






























Interactive Weather Map
Tropical Storm Tracking
New forecast layout! Learn more

10-Day Weather Forecast

Advertisements
Track Severe Weather on mobile